createdAt,value
2018-07-21T00:00:19.689Z,15.15
2018-07-21T00:02:47.801Z,15.11
2018-07-21T00:05:15.956Z,15.07
2018-07-21T00:07:44.160Z,15.01
2018-07-21T00:10:12.281Z,15.04
2018-07-21T00:12:40.424Z,14.89
2018-07-21T00:15:08.627Z,14.79
2018-07-21T00:17:36.691Z,14.72
2018-07-21T00:20:05.346Z,14.61
2018-07-21T00:22:33.530Z,14.65
2018-07-21T00:25:01.674Z,14.77
2018-07-21T00:27:29.781Z,14.71
2018-07-21T00:29:57.945Z,14.65
2018-07-21T00:32:26.102Z,14.63
2018-07-21T00:34:54.291Z,14.46
2018-07-21T00:37:22.435Z,14.37
2018-07-21T00:39:50.559Z,14.40
2018-07-21T00:42:18.706Z,14.56
2018-07-21T00:44:46.890Z,14.66
2018-07-21T00:47:15.036Z,14.69
2018-07-21T00:49:43.225Z,14.73
2018-07-21T00:52:11.424Z,14.78
2018-07-21T00:54:39.599Z,14.79
2018-07-21T00:57:07.781Z,14.80
2018-07-21T00:59:35.944Z,14.71
2018-07-21T01:02:04.090Z,14.64
2018-07-21T01:04:32.274Z,14.59
2018-07-21T01:07:00.421Z,14.12
2018-07-21T01:09:28.602Z,14.18
2018-07-21T01:11:56.754Z,14.12
2018-07-21T01:14:24.934Z,14.11
2018-07-21T01:16:53.093Z,14.04
2018-07-21T01:19:21.237Z,14.04
2018-07-21T01:21:49.414Z,14.05
2018-07-21T01:24:17.547Z,14.07
2018-07-21T01:26:45.716Z,13.87
2018-07-21T01:29:13.878Z,13.93
2018-07-21T01:31:41.979Z,13.97
2018-07-21T01:34:10.156Z,14.14
2018-07-21T01:36:38.364Z,14.24
2018-07-21T01:39:08.191Z,14.30
2018-07-21T01:41:36.301Z,14.34
2018-07-21T01:44:04.469Z,14.30
2018-07-21T01:46:32.619Z,14.31
2018-07-21T01:49:00.810Z,14.24
2018-07-21T01:51:29.005Z,14.00
2018-07-21T01:53:57.354Z,13.95
2018-07-21T01:56:25.533Z,14.07
2018-07-21T01:58:53.723Z,14.16
2018-07-21T02:01:21.888Z,14.18
2018-07-21T02:03:50.084Z,14.13
2018-07-21T02:06:18.482Z,14.13
2018-07-21T02:08:46.686Z,14.05
2018-07-21T02:11:14.878Z,14.07
2018-07-21T02:13:43.512Z,13.96
2018-07-21T02:16:11.731Z,13.77
2018-07-21T02:18:39.888Z,13.83
2018-07-21T02:21:08.038Z,13.82
2018-07-21T02:23:36.190Z,13.98
2018-07-21T02:26:04.329Z,13.92
2018-07-21T02:28:32.478Z,13.85
2018-07-21T02:31:00.635Z,13.49
2018-07-21T02:33:28.815Z,13.61
2018-07-21T02:35:56.989Z,13.76
2018-07-21T02:38:25.174Z,13.81
2018-07-21T02:40:53.327Z,13.65
2018-07-21T02:43:21.481Z,13.68
2018-07-21T02:45:49.671Z,13.77
2018-07-21T02:48:17.859Z,13.89
2018-07-21T02:50:46.056Z,13.97
2018-07-21T02:53:14.248Z,14.04
2018-07-21T02:55:42.390Z,14.10
2018-07-21T02:58:10.574Z,14.04
2018-07-21T03:00:38.757Z,14.10
2018-07-21T03:03:07.264Z,14.12
2018-07-21T03:05:35.402Z,14.09
2018-07-21T03:08:03.530Z,14.12
2018-07-21T03:10:31.720Z,14.09
2018-07-21T03:12:59.855Z,14.13
2018-07-21T03:15:28.051Z,14.11
2018-07-21T03:17:56.279Z,14.12
2018-07-21T03:20:24.453Z,14.04
2018-07-21T03:22:52.666Z,13.99
2018-07-21T03:25:20.872Z,14.03
2018-07-21T03:27:49.056Z,14.08
2018-07-21T03:30:17.254Z,14.12
2018-07-21T03:32:45.448Z,14.01
2018-07-21T03:35:13.628Z,13.93
2018-07-21T03:37:41.773Z,13.90
2018-07-21T03:40:09.945Z,13.91
2018-07-21T03:42:38.103Z,13.91
2018-07-21T03:45:06.332Z,13.77
2018-07-21T03:47:34.963Z,13.73
2018-07-21T03:50:03.154Z,13.79
2018-07-21T03:52:31.333Z,13.79
2018-07-21T03:54:59.515Z,13.76
2018-07-21T03:57:27.633Z,13.76
2018-07-21T03:59:55.803Z,13.99
2018-07-21T04:02:23.989Z,14.12
2018-07-21T04:04:52.138Z,14.30
2018-07-21T04:07:20.264Z,14.41
2018-07-21T04:09:48.435Z,14.41
2018-07-21T04:12:16.584Z,14.42
2018-07-21T04:14:44.713Z,14.35
2018-07-21T04:17:17.016Z,14.59
2018-07-21T04:19:45.137Z,14.66
2018-07-21T04:22:13.294Z,14.80
2018-07-21T04:24:41.457Z,14.68
2018-07-21T04:27:09.577Z,14.49
2018-07-21T04:29:37.744Z,14.37
2018-07-21T04:32:05.919Z,14.53
2018-07-21T04:34:34.012Z,14.52
2018-07-21T04:37:02.183Z,14.74
2018-07-21T04:39:30.332Z,14.80
2018-07-21T04:41:58.537Z,14.88
2018-07-21T04:44:26.664Z,14.75
2018-07-21T04:46:54.830Z,14.85
2018-07-21T04:49:23.018Z,15.06
2018-07-21T04:51:51.219Z,15.23
2018-07-21T04:54:19.412Z,15.19
2018-07-21T04:56:47.584Z,15.78
2018-07-21T04:59:15.764Z,16.34
2018-07-21T05:01:43.941Z,16.67
2018-07-21T05:04:12.125Z,17.32
2018-07-21T05:06:40.305Z,17.56
2018-07-21T05:09:10.302Z,18.44
2018-07-21T05:11:38.752Z,19.56
2018-07-21T05:14:07.651Z,20.59
2018-07-21T05:16:36.167Z,20.86
2018-07-21T05:19:04.315Z,20.85
2018-07-21T05:21:32.448Z,21.14
2018-07-21T05:24:00.797Z,21.57
2018-07-21T05:26:28.945Z,22.09
2018-07-21T05:28:57.057Z,21.71
2018-07-21T05:31:25.185Z,22.12
2018-07-21T05:33:53.312Z,22.38
2018-07-21T05:36:21.769Z,22.49
2018-07-21T05:38:50.805Z,22.20
2018-07-21T05:41:19.039Z,21.78
2018-07-21T05:43:47.201Z,21.47
2018-07-21T05:46:15.374Z,20.57
2018-07-21T05:48:43.522Z,20.46
2018-07-21T05:51:11.692Z,20.50
2018-07-21T05:53:39.865Z,20.67
2018-07-21T05:56:08.000Z,21.74
2018-07-21T05:58:36.126Z,22.01
2018-07-21T06:01:04.384Z,22.75
2018-07-21T06:03:32.493Z,22.36
2018-07-21T06:06:00.595Z,22.69
2018-07-21T06:08:28.784Z,22.44
2018-07-21T06:10:56.955Z,22.18
2018-07-21T06:13:25.125Z,22.20
2018-07-21T06:15:53.329Z,21.98
2018-07-21T06:18:21.519Z,22.08
2018-07-21T06:20:49.673Z,22.31
2018-07-21T06:23:17.846Z,22.53
2018-07-21T06:25:46.025Z,22.88
2018-07-21T06:28:14.183Z,23.24
2018-07-21T06:30:42.356Z,23.16
2018-07-21T06:33:10.795Z,23.37
2018-07-21T06:35:39.022Z,23.67
2018-07-21T06:38:07.147Z,23.21
2018-07-21T06:40:35.355Z,22.78
2018-07-21T06:43:03.521Z,22.33
2018-07-21T06:45:31.662Z,22.32
2018-07-21T06:47:59.862Z,22.56
2018-07-21T06:50:28.047Z,22.52
2018-07-21T06:52:56.236Z,22.45
2018-07-21T06:55:25.115Z,22.40
2018-07-21T06:57:53.384Z,21.93
2018-07-21T07:00:21.571Z,21.73
2018-07-21T07:02:49.732Z,21.91
2018-07-21T07:05:18.568Z,22.45
2018-07-21T07:07:46.759Z,23.05
2018-07-21T07:10:15.052Z,23.40
2018-07-21T07:12:43.176Z,22.96
2018-07-21T07:15:11.390Z,22.96
2018-07-21T07:17:39.615Z,23.22
2018-07-21T07:20:07.889Z,23.16
2018-07-21T07:22:36.139Z,23.11
2018-07-21T07:25:04.425Z,23.01
2018-07-21T07:27:32.573Z,23.28
2018-07-21T07:30:00.862Z,23.16
2018-07-21T07:32:29.062Z,22.88
2018-07-21T07:34:57.479Z,22.79
2018-07-21T07:37:25.650Z,22.61
2018-07-21T07:39:55.590Z,22.76
2018-07-21T07:42:29.144Z,22.57
2018-07-21T07:44:57.413Z,22.85
2018-07-21T07:47:25.618Z,22.91
2018-07-21T07:49:53.836Z,23.64
2018-07-21T07:52:23.068Z,24.00
2018-07-21T07:54:51.779Z,23.93
2018-07-21T07:57:20.320Z,24.04
2018-07-21T07:59:50.100Z,24.02
2018-07-21T08:02:19.609Z,24.09
2018-07-21T08:04:48.406Z,24.06
2018-07-21T08:07:16.674Z,24.65
2018-07-21T08:09:46.061Z,25.30
2018-07-21T08:12:14.440Z,25.41
2018-07-21T08:14:43.007Z,25.40
2018-07-21T08:17:11.734Z,24.89
2018-07-21T08:19:43.388Z,25.28
2018-07-21T08:22:12.490Z,25.27
2018-07-21T08:24:40.798Z,25.70
2018-07-21T08:27:08.973Z,27.07
2018-07-21T08:29:37.220Z,27.47
2018-07-21T08:32:05.423Z,27.71
2018-07-21T08:34:33.752Z,27.25
2018-07-21T08:37:02.941Z,25.84
2018-07-21T08:39:31.103Z,24.89
2018-07-21T08:41:59.286Z,24.41
2018-07-21T08:44:29.617Z,23.99
2018-07-21T08:46:57.870Z,23.57
2018-07-21T08:49:26.281Z,23.46
2018-07-21T08:51:55.778Z,23.66
2018-07-21T08:54:33.762Z,24.11
2018-07-21T08:57:01.933Z,24.58
2018-07-21T08:59:30.294Z,24.59
2018-07-21T09:01:58.877Z,24.38
2018-07-21T09:04:27.843Z,24.71
2018-07-21T09:07:00.763Z,24.73
2018-07-21T09:09:28.965Z,24.92
2018-07-21T09:11:57.182Z,25.49
2018-07-21T09:14:25.364Z,25.67
2018-07-21T09:16:59.188Z,25.47
2018-07-21T09:19:27.419Z,24.88
2018-07-21T09:21:55.733Z,24.91
2018-07-21T09:24:23.939Z,25.92
2018-07-21T09:26:52.237Z,26.10
2018-07-21T09:29:20.548Z,25.35
2018-07-21T09:31:48.811Z,24.97
2018-07-21T09:34:17.124Z,24.81
2018-07-21T09:36:45.333Z,24.34
2018-07-21T09:39:14.586Z,24.26
2018-07-21T09:41:42.826Z,24.24
2018-07-21T09:44:11.055Z,24.29
2018-07-21T09:46:39.243Z,24.24
2018-07-21T09:49:07.476Z,24.22
2018-07-21T09:51:35.693Z,24.23
2018-07-21T09:54:03.866Z,24.73
2018-07-21T09:56:32.064Z,25.40
2018-07-21T09:59:00.504Z,25.88
2018-07-21T10:01:35.677Z,25.93
2018-07-21T10:04:03.733Z,26.24
2018-07-21T10:06:32.192Z,25.66
2018-07-21T10:09:00.506Z,25.87
2018-07-21T10:11:28.925Z,25.28
2018-07-21T10:13:57.203Z,25.28
2018-07-21T10:16:25.484Z,25.39
2018-07-21T10:18:53.659Z,25.67
2018-07-21T10:21:21.836Z,26.03
2018-07-21T10:23:50.051Z,25.41
2018-07-21T10:26:23.669Z,25.41
2018-07-21T10:28:57.224Z,25.62
2018-07-21T10:31:25.408Z,25.42
2018-07-21T10:33:53.625Z,25.96
2018-07-21T10:36:22.696Z,26.68
2018-07-21T10:38:50.858Z,26.84
2018-07-21T10:41:19.035Z,26.84
2018-07-21T10:43:47.186Z,26.74
2018-07-21T10:46:15.342Z,26.87
2018-07-21T10:48:43.521Z,26.93
2018-07-21T10:51:11.721Z,27.17
2018-07-21T10:53:39.876Z,27.26
2018-07-21T10:56:08.088Z,26.68
2018-07-21T10:58:36.294Z,26.83
2018-07-21T11:01:04.413Z,26.95
2018-07-21T11:03:32.613Z,26.90
2018-07-21T11:06:00.726Z,26.58
2018-07-21T11:08:28.912Z,26.97
2018-07-21T11:10:57.058Z,26.98
2018-07-21T11:13:25.227Z,26.54
2018-07-21T11:15:53.546Z,26.28
2018-07-21T11:18:21.707Z,26.04
2018-07-21T11:20:49.831Z,26.01
2018-07-21T11:23:17.955Z,26.04
2018-07-21T11:25:46.137Z,26.44
2018-07-21T11:28:14.322Z,26.53
2018-07-21T11:30:42.506Z,26.27
2018-07-21T11:50:19.661Z,26.02
2018-07-21T11:52:47.822Z,26.45
2018-07-21T11:55:16.001Z,26.61
2018-07-21T11:57:44.154Z,27.04
2018-07-21T12:00:12.307Z,27.41
2018-07-21T12:02:40.471Z,27.55
2018-07-21T12:05:08.771Z,27.42
2018-07-21T12:07:36.963Z,27.85
2018-07-21T12:10:05.250Z,27.13
2018-07-21T12:12:33.361Z,27.40
2018-07-21T12:15:01.499Z,27.63
2018-07-21T12:17:29.634Z,27.57
2018-07-21T12:19:58.707Z,26.86
2018-07-21T12:22:27.325Z,26.68
2018-07-21T12:24:55.537Z,26.35
2018-07-21T12:27:23.710Z,26.60
2018-07-21T12:29:51.851Z,26.97
2018-07-21T12:32:20.009Z,27.07
2018-07-21T12:34:48.222Z,26.76
2018-07-21T12:37:16.421Z,26.91
2018-07-21T12:39:44.904Z,27.14
2018-07-21T12:42:13.164Z,27.52
2018-07-21T12:44:41.332Z,27.69
2018-07-21T12:47:09.571Z,27.92
2018-07-21T12:49:37.733Z,27.82
2018-07-21T12:52:05.970Z,27.78
2018-07-21T12:54:34.138Z,27.56
2018-07-21T12:57:02.345Z,27.74
2018-07-21T12:59:30.551Z,27.66
2018-07-21T13:01:58.708Z,28.00
2018-07-21T13:04:26.868Z,27.90
2018-07-21T13:06:55.174Z,27.20
2018-07-21T13:09:23.373Z,26.90
2018-07-21T13:11:51.623Z,27.08
2018-07-21T13:14:19.902Z,27.38
2018-07-21T13:16:48.044Z,27.63
2018-07-21T13:19:16.357Z,27.65
2018-07-21T13:21:44.490Z,27.57
2018-07-21T13:24:12.680Z,27.81
2018-07-21T13:26:40.849Z,27.95
2018-07-21T13:29:08.993Z,28.30
2018-07-21T13:31:37.183Z,28.05
2018-07-21T13:34:05.429Z,27.99
2018-07-21T13:36:33.654Z,28.30
2018-07-21T13:39:01.832Z,28.63
2018-07-21T13:41:29.977Z,28.80
2018-07-21T13:43:59.437Z,28.73
2018-07-21T13:46:27.598Z,28.22
2018-07-21T13:48:55.768Z,28.80
2018-07-21T13:51:23.937Z,29.03
2018-07-21T13:53:52.207Z,28.54
2018-07-21T13:56:20.415Z,28.24
2018-07-21T13:58:48.597Z,27.82
2018-07-21T14:01:16.761Z,28.17
2018-07-21T14:03:44.880Z,28.50
2018-07-21T14:06:13.012Z,28.44
2018-07-21T14:08:41.178Z,28.61
2018-07-21T14:11:09.354Z,28.76
2018-07-21T14:13:38.102Z,28.38
2018-07-21T14:16:06.282Z,28.26
2018-07-21T14:18:34.550Z,27.98
2018-07-21T14:23:42.575Z,27.97
2018-07-21T14:26:10.814Z,28.03
2018-07-21T14:28:38.962Z,28.23
2018-07-21T14:31:07.174Z,27.87
2018-07-21T14:33:35.360Z,27.30
2018-07-21T14:36:03.672Z,27.57
2018-07-21T14:38:31.946Z,27.43
2018-07-21T14:41:00.101Z,27.34
2018-07-21T14:43:28.229Z,27.35
2018-07-21T14:45:56.389Z,27.47
2018-07-21T14:48:24.613Z,27.71
2018-07-21T14:50:52.765Z,27.31
2018-07-21T14:53:20.904Z,27.33
2018-07-21T14:55:49.051Z,27.35
2018-07-21T14:58:17.234Z,27.30
2018-07-21T15:00:45.517Z,27.21
2018-07-21T15:03:13.666Z,27.17
2018-07-21T15:05:41.910Z,27.18
2018-07-21T15:08:10.082Z,27.10
2018-07-21T15:10:38.388Z,26.98
2018-07-21T15:13:06.580Z,27.14
2018-07-21T15:15:34.930Z,27.06
2018-07-21T15:18:03.116Z,27.04
2018-07-21T15:20:31.293Z,27.07
2018-07-21T15:22:59.540Z,26.79
2018-07-21T15:25:27.727Z,26.88
2018-07-21T15:27:56.321Z,26.83
2018-07-21T15:30:24.476Z,26.90
2018-07-21T15:32:52.653Z,26.86
2018-07-21T15:35:20.819Z,26.87
2018-07-21T15:37:49.087Z,26.68
2018-07-21T15:40:18.171Z,26.63
2018-07-21T15:42:46.329Z,26.61
2018-07-21T15:45:14.502Z,26.57
2018-07-21T15:47:42.751Z,26.51
2018-07-21T15:50:10.978Z,26.47
2018-07-21T15:52:39.189Z,26.40
2018-07-21T15:55:07.365Z,26.41
2018-07-21T15:57:35.530Z,26.39
2018-07-21T16:00:03.769Z,26.44
2018-07-21T16:02:31.962Z,26.42
2018-07-21T16:05:00.136Z,26.46
2018-07-21T16:07:28.328Z,26.37
2018-07-21T16:09:56.503Z,26.30
2018-07-21T16:12:24.678Z,26.33
2018-07-21T16:14:52.925Z,26.24
2018-07-21T16:17:21.161Z,26.14
2018-07-21T16:19:49.360Z,26.03
2018-07-21T16:22:17.582Z,25.94
2018-07-21T16:24:45.781Z,25.92
2018-07-21T16:27:14.353Z,25.85
2018-07-21T16:29:42.563Z,25.84
2018-07-21T16:32:12.724Z,25.89
2018-07-21T16:34:41.864Z,25.87
2018-07-21T16:37:11.028Z,25.93
2018-07-21T16:39:39.537Z,25.97
2018-07-21T16:42:07.843Z,25.90
2018-07-21T16:44:36.060Z,25.94
2018-07-21T16:47:04.269Z,26.02
2018-07-21T16:49:32.457Z,26.08
2018-07-21T16:52:00.936Z,26.19
2018-07-21T16:54:29.136Z,26.17
2018-07-21T16:56:57.385Z,26.11
2018-07-21T16:59:25.598Z,26.11
2018-07-21T17:01:53.776Z,26.21
2018-07-21T17:04:21.954Z,26.14
2018-07-21T17:06:50.089Z,26.06
2018-07-21T17:09:18.309Z,26.07
2018-07-21T17:11:46.540Z,25.88
2018-07-21T17:14:14.720Z,25.62
2018-07-21T17:16:42.886Z,25.58
2018-07-21T17:19:11.097Z,25.44
2018-07-21T17:21:39.254Z,25.58
2018-07-21T17:24:07.501Z,25.72
2018-07-21T17:26:35.744Z,25.58
2018-07-21T17:29:03.918Z,25.37
2018-07-21T17:31:32.084Z,25.11
2018-07-21T17:34:00.633Z,25.15
2018-07-21T17:36:28.831Z,25.08
2018-07-21T17:38:57.004Z,24.96
2018-07-21T17:41:25.290Z,24.83
2018-07-21T17:43:53.524Z,24.73
2018-07-21T17:46:21.789Z,24.71
2018-07-21T17:48:50.270Z,24.77
2018-07-21T17:51:18.549Z,24.82
2018-07-21T17:53:47.015Z,24.76
2018-07-21T17:56:16.130Z,24.77
2018-07-21T17:58:44.370Z,24.75
2018-07-21T18:01:12.585Z,24.86
2018-07-21T18:03:40.798Z,24.77
2018-07-21T18:06:09.194Z,24.66
2018-07-21T18:08:37.350Z,24.64
2018-07-21T18:11:10.314Z,24.58
2018-07-21T18:13:40.176Z,24.54
2018-07-21T18:16:08.453Z,24.58
2018-07-21T18:18:36.616Z,24.52
2018-07-21T18:21:04.888Z,24.44
2018-07-21T18:23:33.046Z,24.41
2018-07-21T18:26:01.282Z,24.35
2018-07-21T18:28:29.474Z,24.31
2018-07-21T18:30:57.665Z,24.33
2018-07-21T18:33:25.869Z,24.27
2018-07-21T18:35:54.057Z,24.24
2018-07-21T18:38:22.332Z,24.23
2018-07-21T18:40:50.494Z,24.24
2018-07-21T18:43:18.770Z,24.24
2018-07-21T18:45:47.015Z,24.22
2018-07-21T18:48:15.729Z,24.13
2018-07-21T18:50:44.012Z,24.10
2018-07-21T18:53:13.382Z,24.04
2018-07-21T18:55:41.610Z,23.96
2018-07-21T18:58:10.021Z,23.85
2018-07-21T19:00:38.242Z,23.76
2018-07-21T19:03:06.526Z,23.67
2018-07-21T19:05:34.724Z,23.57
2018-07-21T19:08:02.987Z,23.50
2018-07-21T19:10:31.229Z,23.42
2018-07-21T19:12:59.419Z,23.30
2018-07-21T19:15:32.789Z,23.15
2018-07-21T19:18:01.026Z,22.97
2018-07-21T19:20:34.753Z,22.77
2018-07-21T19:23:02.957Z,22.64
2018-07-21T19:25:36.409Z,22.50
2018-07-21T19:28:04.634Z,22.46
2018-07-21T19:30:32.802Z,22.43
2018-07-21T19:33:01.725Z,22.35
2018-07-21T19:35:31.167Z,22.34
2018-07-21T19:37:59.329Z,22.18
2018-07-21T19:40:27.570Z,22.09
2018-07-21T19:42:55.699Z,21.98
2018-07-21T19:45:23.939Z,21.81
2018-07-21T19:47:53.148Z,21.74
2018-07-21T19:50:21.426Z,21.73
2018-07-21T19:52:49.672Z,21.51
2018-07-21T19:55:17.830Z,21.35
2018-07-21T19:57:45.995Z,21.32
2018-07-21T20:00:14.669Z,21.28
2018-07-21T20:02:42.928Z,21.31
2018-07-21T20:05:11.101Z,21.22
2018-07-21T20:07:39.391Z,21.19
2018-07-21T20:10:08.503Z,21.19
2018-07-21T20:12:36.748Z,21.18
2018-07-21T20:15:05.030Z,21.16
2018-07-21T20:17:33.794Z,21.15
2018-07-21T20:20:01.933Z,21.14
2018-07-21T20:22:30.125Z,21.12
2018-07-21T20:24:58.341Z,21.09
2018-07-21T20:27:26.788Z,21.05
2018-07-21T20:29:54.984Z,21.06
2018-07-21T20:32:23.212Z,20.89
2018-07-21T20:34:51.347Z,20.75
2018-07-21T20:37:19.913Z,20.62
2018-07-21T20:39:48.187Z,20.54
2018-07-21T20:42:16.268Z,20.47
2018-07-21T20:44:44.465Z,20.47
2018-07-21T20:47:12.668Z,20.39
2018-07-21T20:49:40.888Z,20.42
2018-07-21T20:52:09.287Z,20.31
2018-07-21T20:54:37.581Z,20.26
2018-07-21T20:57:05.882Z,20.09
2018-07-21T20:59:34.034Z,20.01
2018-07-21T21:02:02.228Z,19.92
2018-07-21T21:04:30.558Z,19.76
2018-07-21T21:06:58.811Z,19.62
2018-07-21T21:09:26.982Z,19.56
2018-07-21T21:11:55.152Z,19.42
2018-07-21T21:14:23.319Z,19.36
2018-07-21T21:16:51.556Z,19.35
2018-07-21T21:19:19.911Z,19.31
2018-07-21T21:21:48.070Z,19.26
2018-07-21T21:24:16.285Z,19.26
2018-07-21T21:26:44.508Z,19.24
2018-07-21T21:29:12.722Z,19.22
2018-07-21T21:31:40.905Z,19.23
2018-07-21T21:34:09.138Z,19.26
2018-07-21T21:36:37.340Z,19.25
2018-07-21T21:39:08.597Z,19.03
2018-07-21T21:41:36.817Z,18.78
2018-07-21T21:44:05.044Z,18.60
2018-07-21T21:46:33.192Z,18.50
2018-07-21T21:49:01.373Z,18.45
2018-07-21T21:51:29.578Z,18.50
2018-07-21T21:53:57.905Z,18.59
2018-07-21T21:56:26.346Z,18.62
2018-07-21T21:58:54.510Z,18.65
2018-07-21T22:01:22.709Z,18.70
2018-07-21T22:03:50.897Z,18.70
2018-07-21T22:06:19.088Z,18.74
2018-07-21T22:08:47.254Z,18.81
2018-07-21T22:11:15.418Z,18.89
2018-07-21T22:13:43.631Z,18.99
2018-07-21T22:16:11.788Z,19.10
2018-07-21T22:18:39.929Z,19.06
2018-07-21T22:21:08.105Z,19.05
2018-07-21T22:23:36.305Z,19.03
2018-07-21T22:26:04.466Z,18.96
2018-07-21T22:28:32.639Z,18.92
2018-07-21T22:31:00.826Z,18.93
2018-07-21T22:33:29.002Z,18.91
2018-07-21T22:35:57.210Z,18.96
2018-07-21T22:38:25.401Z,19.01
2018-07-21T22:40:53.597Z,19.05
2018-07-21T22:43:21.825Z,19.02
2018-07-21T22:45:50.023Z,19.05
2018-07-21T22:48:18.181Z,19.06
2018-07-21T22:50:46.400Z,19.11
2018-07-21T22:53:14.546Z,19.20
2018-07-21T22:55:42.683Z,19.16
2018-07-21T22:58:10.828Z,19.15
2018-07-21T23:00:38.939Z,19.24
2018-07-21T23:03:07.136Z,19.22
2018-07-21T23:05:35.338Z,19.20
2018-07-21T23:08:03.463Z,19.18
2018-07-21T23:10:31.630Z,19.11
2018-07-21T23:12:59.835Z,18.97
2018-07-21T23:15:27.996Z,18.92
2018-07-21T23:17:56.119Z,18.91
2018-07-21T23:20:24.265Z,18.93
2018-07-21T23:22:52.459Z,18.93
2018-07-21T23:25:20.617Z,18.90
2018-07-21T23:27:48.801Z,18.91
2018-07-21T23:30:16.930Z,18.90
2018-07-21T23:32:45.070Z,18.90
2018-07-21T23:35:13.222Z,18.90
2018-07-21T23:37:41.357Z,18.96
2018-07-21T23:40:09.498Z,19.00
2018-07-21T23:42:37.670Z,19.05
2018-07-21T23:45:06.217Z,19.04
2018-07-21T23:47:34.410Z,19.13
2018-07-21T23:50:02.628Z,19.16
2018-07-21T23:52:30.842Z,19.20
2018-07-21T23:54:59.033Z,19.32
2018-07-21T23:57:27.204Z,19.31
2018-07-21T23:59:55.442Z,19.29
